sensor_id;sensor_type;location;lat;lon;timestamp;pressure;altitude;pressure_sealevel;temperature;humidity
51287;BME280;37364;46.974;18.916;2023-02-02T00:02:14;151097.63;;;2.96;100.00
51287;BME280;37364;46.974;18.916;2023-02-02T00:04:45;151101.50;;;2.98;100.00
51287;BME280;37364;46.974;18.916;2023-02-02T00:07:18;151097.63;;;2.96;100.00
51287;BME280;37364;46.974;18.916;2023-02-02T00:09:48;151098.88;;;2.97;100.00
51287;BME280;37364;46.974;18.916;2023-02-02T00:12:21;151092.47;;;2.94;100.00
51287;BME280;37364;46.974;18.916;2023-02-02T00:14:52;151084.72;;;2.91;100.00
51287;BME280;37364;46.974;18.916;2023-02-02T00:17:22;151091.16;;;2.94;100.00
51287;BME280;37364;46.974;18.916;2023-02-02T00:19:52;151116.94;;;3.04;100.00
51287;BME280;37364;46.974;18.916;2023-02-02T00:22:25;151109.19;;;3.01;100.00
51287;BME280;37364;46.974;18.916;2023-02-02T00:24:56;151092.47;;;2.94;100.00
51287;BME280;37364;46.974;18.916;2023-02-02T00:27:31;151092.47;;;2.94;100.00
51287;BME280;37364;46.974;18.916;2023-02-02T00:30:02;151093.75;;;2.95;100.00
51287;BME280;37364;46.974;18.916;2023-02-02T00:32:34;151107.91;;;3.01;100.00
51287;BME280;37364;46.974;18.916;2023-02-02T00:35:08;151100.16;;;2.97;100.00
51287;BME280;37364;46.974;18.916;2023-02-02T00:37:42;151101.50;;;2.98;100.00
51287;BME280;37364;46.974;18.916;2023-02-02T00:40:12;151116.94;;;3.04;100.00
51287;BME280;37364;46.974;18.916;2023-02-02T00:42:43;151122.06;;;3.06;100.00
51287;BME280;37364;46.974;18.916;2023-02-02T00:45:16;151100.16;;;2.97;100.00
51287;BME280;37364;46.974;18.916;2023-02-02T00:47:46;151093.75;;;2.95;100.00
51287;BME280;37364;46.974;18.916;2023-02-02T00:50:19;151083.44;;;2.91;100.00
51287;BME280;37364;46.974;18.916;2023-02-02T00:52:53;151068.00;;;2.85;100.00
51287;BME280;37364;46.974;18.916;2023-02-02T00:55:25;151068.00;;;2.85;100.00
51287;BME280;37364;46.974;18.916;2023-02-02T00:57:56;151062.88;;;2.83;100.00
51287;BME280;37364;46.974;18.916;2023-02-02T01:00:27;151057.72;;;2.81;100.00
51287;BME280;37364;46.974;18.916;2023-02-02T01:02:58;151073.16;;;2.87;100.00
51287;BME280;37364;46.974;18.916;2023-02-02T01:05:30;151078.31;;;2.89;100.00
51287;BME280;37364;46.974;18.916;2023-02-02T01:08:04;151062.88;;;2.83;100.00
51287;BME280;37364;46.974;18.916;2023-02-02T01:10:36;151047.41;;;2.76;100.00
51287;BME280;37364;46.974;18.916;2023-02-02T01:13:07;151056.41;;;2.80;100.00
51287;BME280;37364;46.974;18.916;2023-02-02T01:15:37;151075.69;;;2.88;100.00
51287;BME280;37364;46.974;18.916;2023-02-02T01:18:09;151075.69;;;2.88;100.00
51287;BME280;37364;46.974;18.916;2023-02-02T01:20:40;151098.88;;;2.97;100.00
51287;BME280;37364;46.974;18.916;2023-02-02T01:23:13;151080.84;;;2.90;100.00
51287;BME280;37364;46.974;18.916;2023-02-02T01:25:44;151096.34;;;2.96;100.00
51287;BME280;37364;46.974;18.916;2023-02-02T01:28:15;151078.31;;;2.89;100.00
51287;BME280;37364;46.974;18.916;2023-02-02T01:30:46;151084.72;;;2.91;100.00
51287;BME280;37364;46.974;18.916;2023-02-02T01:33:18;151123.34;;;3.07;100.00
51287;BME280;37364;46.974;18.916;2023-02-02T01:35:53;151116.94;;;3.04;100.00
51287;BME280;37364;46.974;18.916;2023-02-02T01:38:27;151091.16;;;2.94;100.00
51287;BME280;37364;46.974;18.916;2023-02-02T01:41:00;151096.34;;;2.96;100.00
51287;BME280;37364;46.974;18.916;2023-02-02T01:43:50;151122.06;;;3.06;100.00
51287;BME280;37364;46.974;18.916;2023-02-02T01:46:23;151145.22;;;3.15;100.00
51287;BME280;37364;46.974;18.916;2023-02-02T01:49:05;151178.72;;;3.29;100.00
51287;BME280;37364;46.974;18.916;2023-02-02T01:51:40;151176.16;;;3.28;100.00
51287;BME280;37364;46.974;18.916;2023-02-02T01:54:19;151177.44;;;3.28;100.00
51287;BME280;37364;46.974;18.916;2023-02-02T01:56:54;151194.16;;;3.35;100.00
51287;BME280;37364;46.974;18.916;2023-02-02T01:59:26;151201.91;;;3.38;100.00
51287;BME280;37364;46.974;18.916;2023-02-02T02:01:58;151258.53;;;3.61;100.00
51287;BME280;37364;46.974;18.916;2023-02-02T02:04:31;151270.16;;;3.65;100.00
51287;BME280;37364;46.974;18.916;2023-02-02T02:07:03;151222.50;;;3.46;100.00
51287;BME280;37364;46.974;18.916;2023-02-02T02:09:38;151201.91;;;3.38;100.00
51287;BME280;37364;46.974;18.916;2023-02-02T02:12:13;151186.44;;;3.32;100.00
51287;BME280;37364;46.974;18.916;2023-02-02T02:14:45;151167.13;;;3.24;100.00
51287;BME280;37364;46.974;18.916;2023-02-02T02:17:43;151173.56;;;3.27;100.00
51287;BME280;37364;46.974;18.916;2023-02-02T02:20:47;151176.16;;;3.28;100.00
51287;BME280;37364;46.974;18.916;2023-02-02T02:23:58;151138.78;;;3.13;100.00
51287;BME280;37364;46.974;18.916;2023-02-02T02:27:01;151110.47;;;3.02;100.00
51287;BME280;37364;46.974;18.916;2023-02-02T02:32:36;151122.06;;;3.06;100.00
51287;BME280;37364;46.974;18.916;2023-02-02T02:35:14;151107.91;;;3.01;100.00
51287;BME280;37364;46.974;18.916;2023-02-02T02:37:53;151102.75;;;2.99;100.00
51287;BME280;37364;46.974;18.916;2023-02-02T02:40:34;151082.16;;;2.90;100.00
51287;BME280;37364;46.974;18.916;2023-02-02T02:43:09;151087.31;;;2.92;100.00
51287;BME280;37364;46.974;18.916;2023-02-02T02:45:44;151083.44;;;2.91;100.00
51287;BME280;37364;46.974;18.916;2023-02-02T02:48:18;151079.56;;;2.89;100.00
51287;BME280;37364;46.974;18.916;2023-02-02T02:50:49;151077.03;;;2.88;100.00
51287;BME280;37364;46.974;18.916;2023-02-02T02:53:21;151057.72;;;2.81;100.00
51287;BME280;37364;46.974;18.916;2023-02-02T02:56:02;151019.09;;;2.65;100.00
51287;BME280;37364;46.974;18.916;2023-02-02T02:58:45;150983.03;;;2.51;100.00
51287;BME280;37364;46.974;18.916;2023-02-02T03:01:20;150957.31;;;2.41;100.00
51287;BME280;37364;46.974;18.916;2023-02-02T03:04:15;150949.59;;;2.37;100.00
51287;BME280;37364;46.974;18.916;2023-02-02T03:06:50;150934.16;;;2.31;100.00
51287;BME280;37364;46.974;18.916;2023-02-02T03:09:24;150935.44;;;2.32;100.00
51287;BME280;37364;46.974;18.916;2023-02-02T03:11:56;150945.72;;;2.36;100.00
51287;BME280;37364;46.974;18.916;2023-02-02T03:14:33;150952.16;;;2.38;100.00
51287;BME280;37364;46.974;18.916;2023-02-02T03:17:05;150970.19;;;2.46;100.00
51287;BME280;37364;46.974;18.916;2023-02-02T03:19:45;150977.88;;;2.49;100.00
51287;BME280;37364;46.974;18.916;2023-02-02T03:22:19;150981.75;;;2.50;100.00
51287;BME280;37364;46.974;18.916;2023-02-02T03:24:51;150998.50;;;2.57;100.00
51287;BME280;37364;46.974;18.916;2023-02-02T03:27:22;150986.91;;;2.52;100.00
51287;BME280;37364;46.974;18.916;2023-02-02T03:29:54;150977.88;;;2.49;100.00
51287;BME280;37364;46.974;18.916;2023-02-02T03:32:24;150979.19;;;2.49;100.00
51287;BME280;37364;46.974;18.916;2023-02-02T03:34:58;150957.31;;;2.41;100.00
51287;BME280;37364;46.974;18.916;2023-02-02T03:37:30;150953.44;;;2.39;100.00
51287;BME280;37364;46.974;18.916;2023-02-02T03:40:01;150930.31;;;2.30;100.00
51287;BME280;37364;46.974;18.916;2023-02-02T03:42:32;150923.84;;;2.27;100.00
51287;BME280;37364;46.974;18.916;2023-02-02T03:45:03;150918.69;;;2.25;100.00
51287;BME280;37364;46.974;18.916;2023-02-02T03:47:36;150905.84;;;2.20;100.00
51287;BME280;37364;46.974;18.916;2023-02-02T03:50:11;150903.25;;;2.19;100.00
51287;BME280;37364;46.974;18.916;2023-02-02T03:52:42;150892.97;;;2.15;100.00
51287;BME280;37364;46.974;18.916;2023-02-02T03:55:13;150892.97;;;2.15;100.00
51287;BME280;37364;46.974;18.916;2023-02-02T03:57:46;150880.13;;;2.10;100.00
51287;BME280;37364;46.974;18.916;2023-02-02T04:00:17;150862.09;;;2.03;100.00
51287;BME280;37364;46.974;18.916;2023-02-02T04:02:49;150833.78;;;1.91;100.00
51287;BME280;37364;46.974;18.916;2023-02-02T04:05:22;150862.09;;;2.03;100.00
51287;BME280;37364;46.974;18.916;2023-02-02T04:07:52;150828.66;;;1.89;100.00
51287;BME280;37364;46.974;18.916;2023-02-02T04:10:24;150817.09;;;1.85;100.00
51287;BME280;37364;46.974;18.916;2023-02-02T04:12:57;150822.25;;;1.87;100.00
51287;BME280;37364;46.974;18.916;2023-02-02T04:15:28;150810.63;;;1.82;100.00
51287;BME280;37364;46.974;18.916;2023-02-02T04:18:02;150792.66;;;1.75;100.00
51287;BME280;37364;46.974;18.916;2023-02-02T04:20:37;150799.06;;;1.77;100.00
51287;BME280;37364;46.974;18.916;2023-02-02T04:23:08;150784.91;;;1.72;100.00
51287;BME280;37364;46.974;18.916;2023-02-02T04:25:47;150768.22;;;1.65;100.00
51287;BME280;37364;46.974;18.916;2023-02-02T04:28:18;150752.78;;;1.59;100.00
51287;BME280;37364;46.974;18.916;2023-02-02T04:30:50;150738.66;;;1.53;100.00
51287;BME280;37364;46.974;18.916;2023-02-02T04:33:23;150743.78;;;1.55;100.00
51287;BME280;37364;46.974;18.916;2023-02-02T04:35:56;150724.50;;;1.48;100.00
51287;BME280;37364;46.974;18.916;2023-02-02T04:38:28;150705.19;;;1.40;100.00
51287;BME280;37364;46.974;18.916;2023-02-02T04:41:05;150688.50;;;1.33;100.00
51287;BME280;37364;46.974;18.916;2023-02-02T04:43:37;150671.75;;;1.27;100.00
51287;BME280;37364;46.974;18.916;2023-02-02T04:46:08;150664.06;;;1.24;100.00
51287;BME280;37364;46.974;18.916;2023-02-02T04:48:40;150638.31;;;1.13;100.00
51287;BME280;37364;46.974;18.916;2023-02-02T04:51:14;150625.50;;;1.08;100.00
51287;BME280;37364;46.974;18.916;2023-02-02T04:53:46;150620.38;;;1.06;100.00
51287;BME280;37364;46.974;18.916;2023-02-02T04:56:18;150617.78;;;1.05;100.00
51287;BME280;37364;46.974;18.916;2023-02-02T04:58:48;150607.50;;;1.01;100.00
51287;BME280;37364;46.974;18.916;2023-02-02T05:01:22;150601.09;;;0.98;100.00
51287;BME280;37364;46.974;18.916;2023-02-02T05:03:56;150604.94;;;1.00;100.00
51287;BME280;37364;46.974;18.916;2023-02-02T05:06:32;150592.06;;;0.95;100.00
51287;BME280;37364;46.974;18.916;2023-02-02T05:09:03;150583.06;;;0.91;100.00
51287;BME280;37364;46.974;18.916;2023-02-02T05:11:34;150563.78;;;0.84;100.00
51287;BME280;37364;46.974;18.916;2023-02-02T05:14:05;150566.38;;;0.85;100.00
51287;BME280;37364;46.974;18.916;2023-02-02T05:16:35;150577.94;;;0.89;100.00
51287;BME280;37364;46.974;18.916;2023-02-02T05:19:07;150567.66;;;0.85;100.00
51287;BME280;37364;46.974;18.916;2023-02-02T05:21:40;150563.78;;;0.84;100.00
51287;BME280;37364;46.974;18.916;2023-02-02T05:24:11;150565.06;;;0.84;100.00
51287;BME280;37364;46.974;18.916;2023-02-02T05:26:41;150571.53;;;0.87;100.00
51287;BME280;37364;46.974;18.916;2023-02-02T05:29:12;150580.53;;;0.90;100.00
51287;BME280;37364;46.974;18.916;2023-02-02T05:31:43;150579.19;;;0.90;100.00
51287;BME280;37364;46.974;18.916;2023-02-02T05:34:15;150579.19;;;0.90;100.00
51287;BME280;37364;46.974;18.916;2023-02-02T05:36:49;150566.38;;;0.85;100.00
51287;BME280;37364;46.974;18.916;2023-02-02T05:39:20;150550.97;;;0.78;100.00
51287;BME280;37364;46.974;18.916;2023-02-02T05:41:51;150547.09;;;0.77;100.00
51287;BME280;37364;46.974;18.916;2023-02-02T05:44:22;150539.38;;;0.74;100.00
51287;BME280;37364;46.974;18.916;2023-02-02T05:46:53;150513.69;;;0.64;100.00
51287;BME280;37364;46.974;18.916;2023-02-02T05:49:23;150507.25;;;0.61;100.00
51287;BME280;37364;46.974;18.916;2023-02-02T05:51:57;150517.53;;;0.65;100.00
51287;BME280;37364;46.974;18.916;2023-02-02T05:54:28;150523.94;;;0.68;100.00
51287;BME280;37364;46.974;18.916;2023-02-02T05:56:59;150517.53;;;0.65;100.00
51287;BME280;37364;46.974;18.916;2023-02-02T05:59:30;150529.09;;;0.70;100.00
51287;BME280;37364;46.974;18.916;2023-02-02T06:02:01;150504.69;;;0.60;100.00
51287;BME280;37364;46.974;18.916;2023-02-02T06:04:32;150509.81;;;0.62;100.00
51287;BME280;37364;46.974;18.916;2023-02-02T06:07:05;150507.25;;;0.61;100.00
51287;BME280;37364;46.974;18.916;2023-02-02T06:09:35;150522.69;;;0.67;100.00
51287;BME280;37364;46.974;18.916;2023-02-02T06:12:06;150532.97;;;0.71;100.00
51287;BME280;37364;46.974;18.916;2023-02-02T06:14:37;150532.97;;;0.71;100.00
51287;BME280;37364;46.974;18.916;2023-02-02T06:17:07;150521.41;;;0.67;100.00
51287;BME280;37364;46.974;18.916;2023-02-02T06:19:38;150545.78;;;0.76;100.00
51287;BME280;37364;46.974;18.916;2023-02-02T06:22:11;150517.53;;;0.65;100.00
51287;BME280;37364;46.974;18.916;2023-02-02T06:24:42;150509.81;;;0.62;100.00
51287;BME280;37364;46.974;18.916;2023-02-02T06:27:12;150482.84;;;0.51;100.00
51287;BME280;37364;46.974;18.916;2023-02-02T06:29:43;150475.13;;;0.48;100.00
51287;BME280;37364;46.974;18.916;2023-02-02T06:32:13;150468.72;;;0.46;100.00
51287;BME280;37364;46.974;18.916;2023-02-02T06:34:44;150464.84;;;0.44;100.00
51287;BME280;37364;46.974;18.916;2023-02-02T06:37:17;150471.25;;;0.47;100.00
51287;BME280;37364;46.974;18.916;2023-02-02T06:39:47;150462.25;;;0.43;100.00
51287;BME280;37364;46.974;18.916;2023-02-02T06:42:18;150469.97;;;0.46;100.00
51287;BME280;37364;46.974;18.916;2023-02-02T06:44:49;150485.41;;;0.52;100.00
51287;BME280;37364;46.974;18.916;2023-02-02T06:47:20;150493.13;;;0.55;100.00
51287;BME280;37364;46.974;18.916;2023-02-02T06:49:52;150489.25;;;0.54;100.00
51287;BME280;37364;46.974;18.916;2023-02-02T06:52:26;150505.94;;;0.61;100.00
51287;BME280;37364;46.974;18.916;2023-02-02T06:54:56;150517.53;;;0.65;100.00
51287;BME280;37364;46.974;18.916;2023-02-02T06:57:27;150553.50;;;0.79;100.00
51287;BME280;37364;46.974;18.916;2023-02-02T06:59:58;150562.50;;;0.83;100.00
51287;BME280;37364;46.974;18.916;2023-02-02T07:02:29;150567.66;;;0.85;100.00
51287;BME280;37364;46.974;18.916;2023-02-02T07:04:59;150592.06;;;0.95;100.00
51287;BME280;37364;46.974;18.916;2023-02-02T07:07:34;150589.47;;;0.94;100.00
51287;BME280;37364;46.974;18.916;2023-02-02T07:10:05;150602.34;;;0.99;100.00
51287;BME280;37364;46.974;18.916;2023-02-02T07:12:56;150622.91;;;1.07;100.00
51287;BME280;37364;46.974;18.916;2023-02-02T07:15:26;150640.94;;;1.14;100.00
51287;BME280;37364;46.974;18.916;2023-02-02T07:18:00;150678.16;;;1.29;100.00
51287;BME280;37364;46.974;18.916;2023-02-02T07:20:31;150666.63;;;1.25;100.00
51287;BME280;37364;46.974;18.916;2023-02-02T07:23:05;150691.06;;;1.34;100.00
51287;BME280;37364;46.974;18.916;2023-02-02T07:25:36;150712.94;;;1.43;100.00
51287;BME280;37364;46.974;18.916;2023-02-02T07:28:09;150757.94;;;1.61;100.00
51287;BME280;37364;46.974;18.916;2023-02-02T07:30:41;150757.94;;;1.61;100.00
51287;BME280;37364;46.974;18.916;2023-02-02T07:33:12;150768.22;;;1.65;100.00
51287;BME280;37364;46.974;18.916;2023-02-02T07:35:42;150778.50;;;1.69;100.00
51287;BME280;37364;46.974;18.916;2023-02-02T07:38:16;150782.38;;;1.71;100.00
51287;BME280;37364;46.974;18.916;2023-02-02T07:40:47;150791.34;;;1.74;100.00
51287;BME280;37364;46.974;18.916;2023-02-02T07:43:17;150817.09;;;1.85;100.00
51287;BME280;37364;46.974;18.916;2023-02-02T07:45:48;150823.50;;;1.87;100.00
51287;BME280;37364;46.974;18.916;2023-02-02T07:48:18;150846.69;;;1.96;100.00
51287;BME280;37364;46.974;18.916;2023-02-02T07:50:49;150862.09;;;2.03;100.00
51287;BME280;37364;46.974;18.916;2023-02-02T07:53:23;150886.56;;;2.12;100.00
51287;BME280;37364;46.974;18.916;2023-02-02T07:55:53;150909.72;;;2.22;100.00
51287;BME280;37364;46.974;18.916;2023-02-02T07:58:33;150926.44;;;2.28;100.00
51287;BME280;37364;46.974;18.916;2023-02-02T08:01:06;150958.63;;;2.41;100.00
51287;BME280;37364;46.974;18.916;2023-02-02T08:03:37;150980.47;;;2.50;100.00
51287;BME280;37364;46.974;18.916;2023-02-02T08:06:11;151010.06;;;2.62;100.00
51287;BME280;37364;46.974;18.916;2023-02-02T08:08:46;151039.69;;;2.73;100.00
51287;BME280;37364;46.974;18.916;2023-02-02T08:11:19;151044.81;;;2.75;100.00
51287;BME280;37364;46.974;18.916;2023-02-02T08:13:51;151062.88;;;2.83;100.00
51287;BME280;37364;46.974;18.916;2023-02-02T08:16:23;151098.88;;;2.97;100.00
51287;BME280;37364;46.974;18.916;2023-02-02T08:18:54;151110.47;;;3.02;100.00
51287;BME280;37364;46.974;18.916;2023-02-02T08:21:25;151162.00;;;3.22;100.00
51287;BME280;37364;46.974;18.916;2023-02-02T08:23:59;151168.41;;;3.25;100.00
51287;BME280;37364;46.974;18.916;2023-02-02T08:26:31;151191.59;;;3.34;100.00
51287;BME280;37364;46.974;18.916;2023-02-02T08:29:05;151194.16;;;3.35;100.00
51287;BME280;37364;46.974;18.916;2023-02-02T08:31:38;151212.19;;;3.42;100.00
51287;BME280;37364;46.974;18.916;2023-02-02T08:34:10;151236.66;;;3.52;100.00
51287;BME280;37364;46.974;18.916;2023-02-02T08:36:41;151272.72;;;3.66;100.00
51287;BME280;37364;46.974;18.916;2023-02-02T08:39:14;151289.50;;;3.73;100.00
51287;BME280;37364;46.974;18.916;2023-02-02T08:41:45;151310.09;;;3.81;100.00
51287;BME280;37364;46.974;18.916;2023-02-02T08:44:16;151362.94;;;4.02;100.00
51287;BME280;37364;46.974;18.916;2023-02-02T08:46:50;151368.06;;;4.04;100.00
51287;BME280;37364;46.974;18.916;2023-02-02T08:49:22;151395.13;;;4.15;100.00
51287;BME280;37364;46.974;18.916;2023-02-02T08:51:52;151408.03;;;4.20;100.00
51287;BME280;37364;46.974;18.916;2023-02-02T08:54:28;151426.06;;;4.27;100.00
51287;BME280;37364;46.974;18.916;2023-02-02T08:57:01;151428.63;;;4.28;100.00
51287;BME280;37364;46.974;18.916;2023-02-02T08:59:33;151491.78;;;4.53;100.00
51287;BME280;37364;46.974;18.916;2023-02-02T09:02:04;151512.41;;;4.62;100.00
51287;BME280;37364;46.974;18.916;2023-02-02T09:04:34;151544.66;;;4.74;100.00
51287;BME280;37364;46.974;18.916;2023-02-02T09:07:06;151570.44;;;4.85;100.00
51287;BME280;37364;46.974;18.916;2023-02-02T09:09:41;151591.03;;;4.93;100.00
51287;BME280;37364;46.974;18.916;2023-02-02T09:12:12;151643.94;;;5.14;100.00
51287;BME280;37364;46.974;18.916;2023-02-02T09:14:43;151634.88;;;5.10;100.00
51287;BME280;37364;46.974;18.916;2023-02-02T09:17:14;151655.50;;;5.19;100.00
51287;BME280;37364;46.974;18.916;2023-02-02T09:19:45;151691.59;;;5.33;100.00
51287;BME280;37364;46.974;18.916;2023-02-02T09:22:16;151699.38;;;5.36;100.00
51287;BME280;37364;46.974;18.916;2023-02-02T09:24:55;151692.94;;;5.33;100.00
51287;BME280;37364;46.974;18.916;2023-02-02T09:27:26;151718.72;;;5.44;100.00
51287;BME280;37364;46.974;18.916;2023-02-02T09:30:03;151736.78;;;5.51;100.00
51287;BME280;37364;46.974;18.916;2023-02-02T09:32:37;151757.41;;;5.59;100.00
51287;BME280;37364;46.974;18.916;2023-02-02T09:35:19;151779.34;;;5.68;100.00
51287;BME280;37364;46.974;18.916;2023-02-02T09:37:49;151788.38;;;5.71;100.00
51287;BME280;37364;46.974;18.916;2023-02-02T09:40:23;151775.44;;;5.66;100.00
51287;BME280;37364;46.974;18.916;2023-02-02T09:43:05;151792.25;;;5.73;100.00
51287;BME280;37364;46.974;18.916;2023-02-02T09:45:46;151784.50;;;5.70;100.00
51287;BME280;37364;46.974;18.916;2023-02-02T09:48:31;151788.38;;;5.71;100.00
51287;BME280;37364;46.974;18.916;2023-02-02T09:51:11;151810.34;;;5.80;100.00
51287;BME280;37364;46.974;18.916;2023-02-02T09:53:47;151814.16;;;5.82;100.00
51287;BME280;37364;46.974;18.916;2023-02-02T09:56:26;151814.16;;;5.82;100.00
51287;BME280;37364;46.974;18.916;2023-02-02T09:59:00;151837.41;;;5.91;100.00
51287;BME280;37364;46.974;18.916;2023-02-02T10:01:46;151882.59;;;6.09;100.00
51287;BME280;37364;46.974;18.916;2023-02-02T10:04:20;151876.16;;;6.06;100.00
51287;BME280;37364;46.974;18.916;2023-02-02T10:06:55;151891.66;;;6.12;100.00
51287;BME280;37364;46.974;18.916;2023-02-02T10:09:32;151880.06;;;6.08;100.00
51287;BME280;37364;46.974;18.916;2023-02-02T10:12:20;151894.25;;;6.13;100.00
51287;BME280;37364;46.974;18.916;2023-02-02T10:14:59;151927.75;;;6.27;100.00
51287;BME280;37364;46.974;18.916;2023-02-02T10:17:39;151947.13;;;6.34;100.00
51287;BME280;37364;46.974;18.916;2023-02-02T10:20:22;151944.56;;;6.33;100.00
51287;BME280;37364;46.974;18.916;2023-02-02T10:23:03;151939.41;;;6.31;100.00
51287;BME280;37364;46.974;18.916;2023-02-02T10:25:35;151929.09;;;6.27;100.00
51287;BME280;37364;46.974;18.916;2023-02-02T10:28:16;151883.88;;;6.09;100.00
51287;BME280;37364;46.974;18.916;2023-02-02T10:30:54;151962.63;;;6.41;100.00
51287;BME280;37364;46.974;18.916;2023-02-02T10:33:35;151994.91;;;6.53;100.00
51287;BME280;37364;46.974;18.916;2023-02-02T10:36:13;151931.66;;;6.28;100.00
51287;BME280;37364;46.974;18.916;2023-02-02T10:38:52;151908.41;;;6.19;100.00
51287;BME280;37364;46.974;18.916;2023-02-02T10:41:31;151944.56;;;6.33;100.00
51287;BME280;37364;46.974;18.916;2023-02-02T10:44:16;151929.09;;;6.27;100.00
51287;BME280;37364;46.974;18.916;2023-02-02T10:46:53;151936.81;;;6.30;100.00
51287;BME280;37364;46.974;18.916;2023-02-02T10:49:27;151854.22;;;5.98;100.00
51287;BME280;37364;46.974;18.916;2023-02-02T10:52:04;151869.72;;;6.04;100.00
51287;BME280;37364;46.974;18.916;2023-02-02T10:54:51;151849.03;;;5.96;100.00
51287;BME280;37364;46.974;18.916;2023-02-02T10:57:33;151815.50;;;5.82;100.00
51287;BME280;37364;46.974;18.916;2023-02-02T11:00:18;151758.69;;;5.60;100.00
51287;BME280;37364;46.974;18.916;2023-02-02T11:02:53;151750.94;;;5.57;100.00
51287;BME280;37364;46.974;18.916;2023-02-02T11:05:31;151770.28;;;5.64;100.00
51287;BME280;37364;46.974;18.916;2023-02-02T11:08:31;151770.28;;;5.64;100.00
51287;BME280;37364;46.974;18.916;2023-02-02T11:11:10;151749.66;;;5.56;100.00
51287;BME280;37364;46.974;18.916;2023-02-02T11:13:45;151720.00;;;5.44;100.00
51287;BME280;37364;46.974;18.916;2023-02-02T11:16:24;151725.16;;;5.46;100.00
51287;BME280;37364;46.974;18.916;2023-02-02T11:19:23;151709.69;;;5.40;100.00
51287;BME280;37364;46.974;18.916;2023-02-02T11:21:58;151717.44;;;5.43;100.00
51287;BME280;37364;46.974;18.916;2023-02-02T11:24:38;151743.22;;;5.53;100.00
51287;BME280;37364;46.974;18.916;2023-02-02T11:27:17;151811.59;;;5.81;100.00
51287;BME280;37364;46.974;18.916;2023-02-02T11:29:56;151873.56;;;6.05;100.00
51287;BME280;37364;46.974;18.916;2023-02-02T11:32:31;151949.72;;;6.36;100.00
51287;BME280;37364;46.974;18.916;2023-02-02T11:35:19;151960.06;;;6.40;100.00
51287;BME280;37364;46.974;18.916;2023-02-02T11:37:59;151984.59;;;6.49;100.00
51287;BME280;37364;46.974;18.916;2023-02-02T11:40:38;152013.00;;;6.61;100.00
51287;BME280;37364;46.974;18.916;2023-02-02T11:43:16;151985.88;;;6.50;100.00
51287;BME280;37364;46.974;18.916;2023-02-02T11:45:55;152056.84;;;6.78;100.00
51287;BME280;37364;46.974;18.916;2023-02-02T11:48:35;152127.91;;;7.06;100.00
51287;BME280;37364;46.974;18.916;2023-02-02T11:51:21;152156.31;;;7.18;100.00
51287;BME280;37364;46.974;18.916;2023-02-02T11:54:02;152144.66;;;7.13;100.00
51287;BME280;37364;46.974;18.916;2023-02-02T11:56:57;152109.81;;;6.99;100.00
51287;BME280;37364;46.974;18.916;2023-02-02T11:59:31;152071.06;;;6.84;100.00
51287;BME280;37364;46.974;18.916;2023-02-02T12:02:25;152040.09;;;6.71;100.00
51287;BME280;37364;46.974;18.916;2023-02-02T12:05:32;152028.47;;;6.67;100.00
51287;BME280;37364;46.974;18.916;2023-02-02T12:08:04;151936.81;;;6.30;100.00
51287;BME280;37364;46.974;18.916;2023-02-02T12:10:41;151934.25;;;6.29;100.00
51287;BME280;37364;46.974;18.916;2023-02-02T12:13:22;151932.94;;;6.29;100.00
51287;BME280;37364;46.974;18.916;2023-02-02T12:16:01;151914.88;;;6.22;100.00
51287;BME280;37364;46.974;18.916;2023-02-02T12:18:44;151914.88;;;6.22;100.00
51287;BME280;37364;46.974;18.916;2023-02-02T12:21:30;151903.25;;;6.17;100.00
51287;BME280;37364;46.974;18.916;2023-02-02T12:24:17;151903.25;;;6.17;100.00
51287;BME280;37364;46.974;18.916;2023-02-02T12:26:56;151874.88;;;6.06;100.00
51287;BME280;37364;46.974;18.916;2023-02-02T12:29:50;151900.69;;;6.16;100.00
51287;BME280;37364;46.974;18.916;2023-02-02T12:32:45;151892.94;;;6.13;100.00
51287;BME280;37364;46.974;18.916;2023-02-02T12:35:31;151881.34;;;6.08;100.00
51287;BME280;37364;46.974;18.916;2023-02-02T12:38:15;151816.75;;;5.83;100.00
51287;BME280;37364;46.974;18.916;2023-02-02T12:41:06;151807.72;;;5.79;100.00
51287;BME280;37364;46.974;18.916;2023-02-02T12:43:41;151820.66;;;5.84;100.00
51287;BME280;37364;46.974;18.916;2023-02-02T12:46:22;151850.38;;;5.96;100.00
51287;BME280;37364;46.974;18.916;2023-02-02T12:49:12;151850.38;;;5.96;100.00
51287;BME280;37364;46.974;18.916;2023-02-02T12:52:08;151894.25;;;6.13;100.00
51287;BME280;37364;46.974;18.916;2023-02-02T12:55:09;151896.81;;;6.14;100.00
51287;BME280;37364;46.974;18.916;2023-02-02T12:57:54;151912.28;;;6.21;100.00
51287;BME280;37364;46.974;18.916;2023-02-02T13:00:45;151969.09;;;6.43;100.00
51287;BME280;37364;46.974;18.916;2023-02-02T13:03:32;151960.06;;;6.40;100.00
51287;BME280;37364;46.974;18.916;2023-02-02T13:06:27;151929.09;;;6.27;100.00
51287;BME280;37364;46.974;18.916;2023-02-02T13:09:08;151953.63;;;6.37;100.00
51287;BME280;37364;46.974;18.916;2023-02-02T13:11:52;151932.94;;;6.29;100.00
51287;BME280;37364;46.974;18.916;2023-02-02T13:14:36;151926.50;;;6.26;100.00
51287;BME280;37364;46.974;18.916;2023-02-02T13:17:16;151913.56;;;6.21;100.00
51287;BME280;37364;46.974;18.916;2023-02-02T13:19:51;151907.13;;;6.19;100.00
51287;BME280;37364;46.974;18.916;2023-02-02T13:22:28;151907.13;;;6.19;100.00
51287;BME280;37364;46.974;18.916;2023-02-02T13:25:08;151890.38;;;6.12;100.00
51287;BME280;37364;46.974;18.916;2023-02-02T13:27:48;151861.97;;;6.01;100.00